ZBAA METAR and TAF | Updated Today

ZBAA METAR

Beijing Capital International Airport

Observation time: 17 min. ago

ZBAA 062030Z VRB01MPS CAVOK 03/03 Q1024 NOSIG

Need help? Read our tutorial on how to read METARs or read the parsed version below.

Beijing Capital International Airport (ZBAA) METAR

  • Weather conditions on Thu, 06 Oct 2022 20:30:00 +0000 (17 min. ago):
  • Present conditions: Dry
  • Clouds: Clear skies
  • Visibility: Greater than 10 km
  • Wind: Variable at 1 knots
  • Temperature: 3 celsius
  • Dew point: 3 celsius
  • Pressure: 1024 millibars
  • Remarks: None


Useful to know...

ZBAA TAF

Beijing Capital International Airport

TAF ZBAA 061506Z 0618/0718 19004MPS 6000 NSC TX20/0707Z TN03/0621Z
Observation time: 5:41 hr. ago
Need help? Read our tutorial on how to read TAFs or read the parsed version below.

Parsed version of TAF for Beijing Capital International Airport (ZBAA)

  • From 06 October at 18:00 UTC, to day 07 of the month at 18:00 UTC
  • Clouds: No significant clouds are observed
  • Visibility: 6000 meters
  • Wind: 190 degrees at 4

Airports near ZBAA

ZBAD Weather
Region: Beijing

Beijing Daxing International Airport

Not found in our database